sensor_id;sensor_type;location;lat;lon;timestamp;temperature;humidity
21355;DHT22;10835;50.148;19.760;2022-10-04T00:01:24;22.50;54.50
21355;DHT22;10835;50.148;19.760;2022-10-04T00:04:01;21.90;55.10
21355;DHT22;10835;50.148;19.760;2022-10-04T00:06:31;22.20;56.00
21355;DHT22;10835;50.148;19.760;2022-10-04T00:09:04;22.90;54.70
21355;DHT22;10835;50.148;19.760;2022-10-04T00:11:36;22.90;54.30
21355;DHT22;10835;50.148;19.760;2022-10-04T00:14:08;22.90;53.60
21355;DHT22;10835;50.148;19.760;2022-10-04T00:16:41;22.90;53.70
21355;DHT22;10835;50.148;19.760;2022-10-04T00:19:38;22.90;54.00
21355;DHT22;10835;50.148;19.760;2022-10-04T00:22:14;22.30;54.20
21355;DHT22;10835;50.148;19.760;2022-10-04T00:28:26;22.10;55.40
21355;DHT22;10835;50.148;19.760;2022-10-04T00:31:11;21.70;55.70
21355;DHT22;10835;50.148;19.760;2022-10-04T00:33:40;21.80;55.70
21355;DHT22;10835;50.148;19.760;2022-10-04T00:39:54;22.40;55.30
21355;DHT22;10835;50.148;19.760;2022-10-04T00:42:42;22.80;54.60
21355;DHT22;10835;50.148;19.760;2022-10-04T00:45:25;22.80;54.80
21355;DHT22;10835;50.148;19.760;2022-10-04T00:50:51;22.70;55.10
21355;DHT22;10835;50.148;19.760;2022-10-04T00:53:38;23.00;54.60
21355;DHT22;10835;50.148;19.760;2022-10-04T00:56:10;23.00;53.90
21355;DHT22;10835;50.148;19.760;2022-10-04T00:58:46;22.80;54.10
21355;DHT22;10835;50.148;19.760;2022-10-04T01:01:20;22.70;54.70
21355;DHT22;10835;50.148;19.760;2022-10-04T01:03:50;22.90;54.80
21355;DHT22;10835;50.148;19.760;2022-10-04T01:06:20;23.00;54.50
21355;DHT22;10835;50.148;19.760;2022-10-04T01:08:51;23.20;53.50
21355;DHT22;10835;50.148;19.760;2022-10-04T01:11:23;23.00;53.30
21355;DHT22;10835;50.148;19.760;2022-10-04T01:13:56;22.70;53.60
21355;DHT22;10835;50.148;19.760;2022-10-04T01:16:27;22.50;54.20
21355;DHT22;10835;50.148;19.760;2022-10-04T01:19:25;22.40;54.00
21355;DHT22;10835;50.148;19.760;2022-10-04T01:22:09;22.30;54.50
21355;DHT22;10835;50.148;19.760;2022-10-04T01:24:40;22.20;55.20
21355;DHT22;10835;50.148;19.760;2022-10-04T01:27:30;22.40;54.20
21355;DHT22;10835;50.148;19.760;2022-10-04T01:29:59;22.20;54.70
21355;DHT22;10835;50.148;19.760;2022-10-04T01:32:28;22.60;54.70
21355;DHT22;10835;50.148;19.760;2022-10-04T01:34:57;22.30;54.10
21355;DHT22;10835;50.148;19.760;2022-10-04T01:37:25;22.40;54.60
21355;DHT22;10835;50.148;19.760;2022-10-04T01:39:55;22.20;54.40
21355;DHT22;10835;50.148;19.760;2022-10-04T01:42:26;22.10;55.00
21355;DHT22;10835;50.148;19.760;2022-10-04T01:44:59;22.40;55.00
21355;DHT22;10835;50.148;19.760;2022-10-04T01:47:32;22.40;54.30
21355;DHT22;10835;50.148;19.760;2022-10-04T01:50:05;22.30;55.10
21355;DHT22;10835;50.148;19.760;2022-10-04T01:52:42;22.60;54.60
21355;DHT22;10835;50.148;19.760;2022-10-04T01:55:14;22.30;54.70
21355;DHT22;10835;50.148;19.760;2022-10-04T01:57:48;22.00;55.10
21355;DHT22;10835;50.148;19.760;2022-10-04T02:00:20;21.90;55.30
21355;DHT22;10835;50.148;19.760;2022-10-04T02:02:52;22.20;55.30
21355;DHT22;10835;50.148;19.760;2022-10-04T02:05:27;22.00;55.00
21355;DHT22;10835;50.148;19.760;2022-10-04T02:08:01;22.30;54.30
21355;DHT22;10835;50.148;19.760;2022-10-04T02:10:35;22.40;54.00
21355;DHT22;10835;50.148;19.760;2022-10-04T02:13:10;22.10;54.60
21355;DHT22;10835;50.148;19.760;2022-10-04T02:15:41;22.00;54.90
21355;DHT22;10835;50.148;19.760;2022-10-04T02:18:11;22.10;54.80
21355;DHT22;10835;50.148;19.760;2022-10-04T02:20:40;21.80;54.70
21355;DHT22;10835;50.148;19.760;2022-10-04T02:23:10;21.80;55.00
21355;DHT22;10835;50.148;19.760;2022-10-04T02:25:40;21.80;55.00
21355;DHT22;10835;50.148;19.760;2022-10-04T02:28:09;21.80;54.80
21355;DHT22;10835;50.148;19.760;2022-10-04T02:30:41;21.70;55.30
21355;DHT22;10835;50.148;19.760;2022-10-04T02:33:10;21.60;55.60
21355;DHT22;10835;50.148;19.760;2022-10-04T02:35:44;21.10;55.90
21355;DHT22;10835;50.148;19.760;2022-10-04T02:38:18;21.30;56.00
21355;DHT22;10835;50.148;19.760;2022-10-04T02:40:56;21.40;55.50
21355;DHT22;10835;50.148;19.760;2022-10-04T02:43:29;21.60;55.40
21355;DHT22;10835;50.148;19.760;2022-10-04T02:46:04;22.00;55.30
21355;DHT22;10835;50.148;19.760;2022-10-04T02:48:38;22.10;54.40
21355;DHT22;10835;50.148;19.760;2022-10-04T02:51:15;22.30;54.30
21355;DHT22;10835;50.148;19.760;2022-10-04T02:53:50;22.30;54.40
21355;DHT22;10835;50.148;19.760;2022-10-04T02:56:21;22.00;54.40
21355;DHT22;10835;50.148;19.760;2022-10-04T02:58:51;22.00;54.60
21355;DHT22;10835;50.148;19.760;2022-10-04T03:01:27;22.00;55.00
21355;DHT22;10835;50.148;19.760;2022-10-04T03:03:56;22.10;55.10
21355;DHT22;10835;50.148;19.760;2022-10-04T03:06:29;22.10;54.70
21355;DHT22;10835;50.148;19.760;2022-10-04T03:09:01;22.10;54.90
21355;DHT22;10835;50.148;19.760;2022-10-04T03:11:33;21.90;54.70
21355;DHT22;10835;50.148;19.760;2022-10-04T03:14:05;21.60;55.60
21355;DHT22;10835;50.148;19.760;2022-10-04T03:16:35;21.50;55.60
21355;DHT22;10835;50.148;19.760;2022-10-04T03:19:07;21.70;55.30
21355;DHT22;10835;50.148;19.760;2022-10-04T03:21:37;21.70;55.50
21355;DHT22;10835;50.148;19.760;2022-10-04T03:24:10;22.10;54.50
21355;DHT22;10835;50.148;19.760;2022-10-04T03:26:45;22.10;54.30
21355;DHT22;10835;50.148;19.760;2022-10-04T03:29:15;22.00;54.40
21355;DHT22;10835;50.148;19.760;2022-10-04T03:31:46;22.30;54.20
21355;DHT22;10835;50.148;19.760;2022-10-04T03:34:16;21.90;54.10
21355;DHT22;10835;50.148;19.760;2022-10-04T03:36:46;22.30;54.20
21355;DHT22;10835;50.148;19.760;2022-10-04T03:39:29;22.30;53.60
21355;DHT22;10835;50.148;19.760;2022-10-04T03:42:03;22.20;53.70
21355;DHT22;10835;50.148;19.760;2022-10-04T03:44:31;22.30;53.90
21355;DHT22;10835;50.148;19.760;2022-10-04T03:47:00;22.40;53.80
21355;DHT22;10835;50.148;19.760;2022-10-04T03:49:32;23.00;52.80
21355;DHT22;10835;50.148;19.760;2022-10-04T03:52:03;22.90;52.40
21355;DHT22;10835;50.148;19.760;2022-10-04T03:54:32;22.60;52.20
21355;DHT22;10835;50.148;19.760;2022-10-04T03:57:05;22.80;52.60
21355;DHT22;10835;50.148;19.760;2022-10-04T03:59:34;23.10;52.30
21355;DHT22;10835;50.148;19.760;2022-10-04T04:02:11;22.90;52.20
21355;DHT22;10835;50.148;19.760;2022-10-04T04:04:47;23.00;51.40
21355;DHT22;10835;50.148;19.760;2022-10-04T04:07:22;23.10;51.30
21355;DHT22;10835;50.148;19.760;2022-10-04T04:09:58;23.00;51.40
21355;DHT22;10835;50.148;19.760;2022-10-04T04:12:36;22.70;51.90
21355;DHT22;10835;50.148;19.760;2022-10-04T04:15:08;22.40;52.30
21355;DHT22;10835;50.148;19.760;2022-10-04T04:17:39;22.30;52.70
21355;DHT22;10835;50.148;19.760;2022-10-04T04:20:21;22.00;53.30
21355;DHT22;10835;50.148;19.760;2022-10-04T04:22:57;21.80;53.80
21355;DHT22;10835;50.148;19.760;2022-10-04T04:25:27;21.60;54.10
21355;DHT22;10835;50.148;19.760;2022-10-04T04:28:06;21.90;54.30
21355;DHT22;10835;50.148;19.760;2022-10-04T04:30:43;21.70;54.50
21355;DHT22;10835;50.148;19.760;2022-10-04T04:33:17;21.80;54.10
21355;DHT22;10835;50.148;19.760;2022-10-04T04:35:53;21.80;54.30
21355;DHT22;10835;50.148;19.760;2022-10-04T04:38:23;22.10;54.50
21355;DHT22;10835;50.148;19.760;2022-10-04T04:40:52;22.30;54.00
21355;DHT22;10835;50.148;19.760;2022-10-04T04:43:24;22.50;53.00
21355;DHT22;10835;50.148;19.760;2022-10-04T04:45:53;22.50;53.10
21355;DHT22;10835;50.148;19.760;2022-10-04T04:48:45;22.10;53.50
21355;DHT22;10835;50.148;19.760;2022-10-04T04:51:18;22.50;53.50
21355;DHT22;10835;50.148;19.760;2022-10-04T04:53:48;22.70;53.20
21355;DHT22;10835;50.148;19.760;2022-10-04T04:56:17;22.80;53.00
21355;DHT22;10835;50.148;19.760;2022-10-04T04:58:50;22.40;53.10
21355;DHT22;10835;50.148;19.760;2022-10-04T05:01:23;22.00;54.00
21355;DHT22;10835;50.148;19.760;2022-10-04T05:04:03;21.80;53.90
21355;DHT22;10835;50.148;19.760;2022-10-04T05:06:33;21.90;54.60
21355;DHT22;10835;50.148;19.760;2022-10-04T05:09:01;21.60;54.60
21355;DHT22;10835;50.148;19.760;2022-10-04T05:11:32;21.80;55.00
21355;DHT22;10835;50.148;19.760;2022-10-04T05:14:06;21.30;55.10
21355;DHT22;10835;50.148;19.760;2022-10-04T05:16:37;21.80;54.90
21355;DHT22;10835;50.148;19.760;2022-10-04T05:19:12;21.30;55.00
21355;DHT22;10835;50.148;19.760;2022-10-04T05:21:43;21.10;55.50
21355;DHT22;10835;50.148;19.760;2022-10-04T05:24:17;21.20;55.70
21355;DHT22;10835;50.148;19.760;2022-10-04T05:26:49;21.10;55.50
21355;DHT22;10835;50.148;19.760;2022-10-04T05:29:22;21.50;55.00
21355;DHT22;10835;50.148;19.760;2022-10-04T05:31:57;21.40;55.10
21355;DHT22;10835;50.148;19.760;2022-10-04T05:34:31;21.40;55.60
21355;DHT22;10835;50.148;19.760;2022-10-04T05:37:18;21.30;55.10
21355;DHT22;10835;50.148;19.760;2022-10-04T05:39:58;21.40;54.70
21355;DHT22;10835;50.148;19.760;2022-10-04T05:42:36;21.60;54.80
21355;DHT22;10835;50.148;19.760;2022-10-04T05:45:18;21.70;53.80
21355;DHT22;10835;50.148;19.760;2022-10-04T05:47:49;21.60;54.50
21355;DHT22;10835;50.148;19.760;2022-10-04T05:50:20;21.80;53.80
21355;DHT22;10835;50.148;19.760;2022-10-04T05:52:50;21.80;53.90
21355;DHT22;10835;50.148;19.760;2022-10-04T05:55:26;21.80;53.50
21355;DHT22;10835;50.148;19.760;2022-10-04T05:58:22;21.90;53.90
21355;DHT22;10835;50.148;19.760;2022-10-04T06:01:09;21.70;53.80
21355;DHT22;10835;50.148;19.760;2022-10-04T06:03:50;21.90;53.60
21355;DHT22;10835;50.148;19.760;2022-10-04T06:06:25;22.20;53.50
21355;DHT22;10835;50.148;19.760;2022-10-04T06:09:04;21.90;53.50
21355;DHT22;10835;50.148;19.760;2022-10-04T06:11:47;21.90;53.60
21355;DHT22;10835;50.148;19.760;2022-10-04T06:14:39;21.80;54.30
21355;DHT22;10835;50.148;19.760;2022-10-04T06:17:27;21.80;54.40
21355;DHT22;10835;50.148;19.760;2022-10-04T06:20:36;21.90;54.20
21355;DHT22;10835;50.148;19.760;2022-10-04T06:23:13;21.30;55.10
21355;DHT22;10835;50.148;19.760;2022-10-04T06:25:46;21.70;54.70
21355;DHT22;10835;50.148;19.760;2022-10-04T06:28:18;21.60;54.50
21355;DHT22;10835;50.148;19.760;2022-10-04T06:31:21;21.50;54.50
21355;DHT22;10835;50.148;19.760;2022-10-04T06:34:22;22.10;54.30
21355;DHT22;10835;50.148;19.760;2022-10-04T06:37:16;21.70;54.20
21355;DHT22;10835;50.148;19.760;2022-10-04T06:40:18;21.60;54.20
21355;DHT22;10835;50.148;19.760;2022-10-04T06:43:12;21.60;54.30
21355;DHT22;10835;50.148;19.760;2022-10-04T06:46:00;21.60;55.30
21355;DHT22;10835;50.148;19.760;2022-10-04T06:48:53;21.40;55.40
21355;DHT22;10835;50.148;19.760;2022-10-04T06:51:39;21.20;55.60
21355;DHT22;10835;50.148;19.760;2022-10-04T06:54:21;21.20;55.50
21355;DHT22;10835;50.148;19.760;2022-10-04T06:57:13;21.50;55.30
21355;DHT22;10835;50.148;19.760;2022-10-04T07:00:01;21.70;55.20
21355;DHT22;10835;50.148;19.760;2022-10-04T07:02:36;21.70;54.60
21355;DHT22;10835;50.148;19.760;2022-10-04T07:05:14;21.70;55.10
21355;DHT22;10835;50.148;19.760;2022-10-04T07:07:47;21.90;54.40
21355;DHT22;10835;50.148;19.760;2022-10-04T07:10:36;21.90;54.20
21355;DHT22;10835;50.148;19.760;2022-10-04T07:13:30;22.00;54.40
21355;DHT22;10835;50.148;19.760;2022-10-04T07:16:03;22.00;54.40
21355;DHT22;10835;50.148;19.760;2022-10-04T07:18:36;22.20;53.10
21355;DHT22;10835;50.148;19.760;2022-10-04T07:21:09;22.20;53.90
21355;DHT22;10835;50.148;19.760;2022-10-04T07:23:48;22.30;53.40
21355;DHT22;10835;50.148;19.760;2022-10-04T07:26:24;22.40;53.10
21355;DHT22;10835;50.148;19.760;2022-10-04T07:28:56;22.60;52.90
21355;DHT22;10835;50.148;19.760;2022-10-04T07:31:45;22.60;53.50
21355;DHT22;10835;50.148;19.760;2022-10-04T07:34:17;23.10;52.40
21355;DHT22;10835;50.148;19.760;2022-10-04T07:36:49;23.40;52.00
21355;DHT22;10835;50.148;19.760;2022-10-04T07:39:24;23.30;51.90
21355;DHT22;10835;50.148;19.760;2022-10-04T07:41:56;22.80;51.90
21355;DHT22;10835;50.148;19.760;2022-10-04T07:44:34;22.70;51.80
21355;DHT22;10835;50.148;19.760;2022-10-04T07:47:11;22.80;52.40
21355;DHT22;10835;50.148;19.760;2022-10-04T07:49:42;22.50;52.80
21355;DHT22;10835;50.148;19.760;2022-10-04T07:52:31;22.30;53.50
21355;DHT22;10835;50.148;19.760;2022-10-04T07:55:16;23.00;53.40
21355;DHT22;10835;50.148;19.760;2022-10-04T07:57:56;22.70;52.30
21355;DHT22;10835;50.148;19.760;2022-10-04T08:00:32;22.50;52.50
21355;DHT22;10835;50.148;19.760;2022-10-04T08:03:18;22.50;52.70
21355;DHT22;10835;50.148;19.760;2022-10-04T08:05:53;22.60;52.70
21355;DHT22;10835;50.148;19.760;2022-10-04T08:08:35;22.50;52.50
21355;DHT22;10835;50.148;19.760;2022-10-04T08:11:21;22.20;53.10
21355;DHT22;10835;50.148;19.760;2022-10-04T08:13:55;22.40;52.90
21355;DHT22;10835;50.148;19.760;2022-10-04T08:16:33;22.50;53.10
21355;DHT22;10835;50.148;19.760;2022-10-04T08:19:18;23.00;52.30
21355;DHT22;10835;50.148;19.760;2022-10-04T08:21:59;22.70;52.40
21355;DHT22;10835;50.148;19.760;2022-10-04T08:24:33;22.70;52.50
21355;DHT22;10835;50.148;19.760;2022-10-04T08:27:20;22.50;52.70
21355;DHT22;10835;50.148;19.760;2022-10-04T08:30:03;22.80;52.50
21355;DHT22;10835;50.148;19.760;2022-10-04T08:32:47;23.20;52.60
21355;DHT22;10835;50.148;19.760;2022-10-04T08:35:33;23.20;51.80
21355;DHT22;10835;50.148;19.760;2022-10-04T08:38:35;23.50;51.20
21355;DHT22;10835;50.148;19.760;2022-10-04T08:44:42;23.20;51.20
21355;DHT22;10835;50.148;19.760;2022-10-04T08:50:38;22.90;51.70
21355;DHT22;10835;50.148;19.760;2022-10-04T08:53:35;23.00;52.00
21355;DHT22;10835;50.148;19.760;2022-10-04T08:56:17;23.30;51.50
21355;DHT22;10835;50.148;19.760;2022-10-04T08:59:33;23.50;51.60
21355;DHT22;10835;50.148;19.760;2022-10-04T09:02:27;23.40;51.40
21355;DHT22;10835;50.148;19.760;2022-10-04T09:05:34;23.10;51.90
21355;DHT22;10835;50.148;19.760;2022-10-04T09:11:34;23.20;51.20
21355;DHT22;10835;50.148;19.760;2022-10-04T09:14:29;23.10;52.00
21355;DHT22;10835;50.148;19.760;2022-10-04T09:17:17;23.40;52.00
21355;DHT22;10835;50.148;19.760;2022-10-04T09:20:00;23.40;51.40
21355;DHT22;10835;50.148;19.760;2022-10-04T09:22:54;23.20;51.40
21355;DHT22;10835;50.148;19.760;2022-10-04T09:25:48;23.30;51.40
21355;DHT22;10835;50.148;19.760;2022-10-04T09:34:39;23.20;51.70
21355;DHT22;10835;50.148;19.760;2022-10-04T09:37:38;23.20;51.60
21355;DHT22;10835;50.148;19.760;2022-10-04T09:40:35;23.50;51.10
21355;DHT22;10835;50.148;19.760;2022-10-04T09:43:33;23.50;51.10
21355;DHT22;10835;50.148;19.760;2022-10-04T09:46:12;23.20;51.20
21355;DHT22;10835;50.148;19.760;2022-10-04T09:48:50;23.10;52.30
21355;DHT22;10835;50.148;19.760;2022-10-04T09:51:34;23.50;51.40
21355;DHT22;10835;50.148;19.760;2022-10-04T09:54:22;23.40;51.10
21355;DHT22;10835;50.148;19.760;2022-10-04T09:57:07;24.20;50.40
21355;DHT22;10835;50.148;19.760;2022-10-04T10:00:16;24.20;50.10
21355;DHT22;10835;50.148;19.760;2022-10-04T10:06:18;25.10;47.80
21355;DHT22;10835;50.148;19.760;2022-10-04T10:09:05;24.40;48.60
21355;DHT22;10835;50.148;19.760;2022-10-04T10:11:44;24.10;49.60
21355;DHT22;10835;50.148;19.760;2022-10-04T10:14:57;24.40;49.80
21355;DHT22;10835;50.148;19.760;2022-10-04T10:17:33;25.20;48.40
21355;DHT22;10835;50.148;19.760;2022-10-04T10:20:28;24.30;48.80
21355;DHT22;10835;50.148;19.760;2022-10-04T10:23:13;24.40;48.30
21355;DHT22;10835;50.148;19.760;2022-10-04T10:26:00;23.90;48.30
21355;DHT22;10835;50.148;19.760;2022-10-04T10:28:45;24.20;48.60
21355;DHT22;10835;50.148;19.760;2022-10-04T10:31:31;24.00;48.60
21355;DHT22;10835;50.148;19.760;2022-10-04T10:34:19;23.90;49.20
21355;DHT22;10835;50.148;19.760;2022-10-04T10:37:06;24.10;48.90
21355;DHT22;10835;50.148;19.760;2022-10-04T10:43:03;24.20;49.70
21355;DHT22;10835;50.148;19.760;2022-10-04T10:45:46;24.50;48.70
21355;DHT22;10835;50.148;19.760;2022-10-04T10:48:28;25.10;48.10
21355;DHT22;10835;50.148;19.760;2022-10-04T10:51:00;25.10;47.10
21355;DHT22;10835;50.148;19.760;2022-10-04T10:56:45;24.70;47.00
21355;DHT22;10835;50.148;19.760;2022-10-04T11:06:08;24.60;46.30
21355;DHT22;10835;50.148;19.760;2022-10-04T11:12:06;24.50;45.30
21355;DHT22;10835;50.148;19.760;2022-10-04T11:15:08;23.90;45.70
21355;DHT22;10835;50.148;19.760;2022-10-04T11:18:32;23.90;46.70
21355;DHT22;10835;50.148;19.760;2022-10-04T11:21:44;23.90;46.70
21355;DHT22;10835;50.148;19.760;2022-10-04T11:24:32;23.80;47.40
21355;DHT22;10835;50.148;19.760;2022-10-04T11:27:16;24.00;46.80
21355;DHT22;10835;50.148;19.760;2022-10-04T11:30:02;24.70;46.10
21355;DHT22;10835;50.148;19.760;2022-10-04T11:36:00;24.60;46.10
21355;DHT22;10835;50.148;19.760;2022-10-04T11:38:50;24.60;46.60
21355;DHT22;10835;50.148;19.760;2022-10-04T11:41:25;25.10;45.40
21355;DHT22;10835;50.148;19.760;2022-10-04T11:44:18;24.50;45.50
21355;DHT22;10835;50.148;19.760;2022-10-04T11:46:53;24.40;45.70
21355;DHT22;10835;50.148;19.760;2022-10-04T11:49:53;24.10;46.50
21355;DHT22;10835;50.148;19.760;2022-10-04T11:52:52;23.90;46.00
21355;DHT22;10835;50.148;19.760;2022-10-04T11:55:48;24.00;46.90
21355;DHT22;10835;50.148;19.760;2022-10-04T11:58:29;24.60;46.40
21355;DHT22;10835;50.148;19.760;2022-10-04T12:04:32;25.40;46.20
21355;DHT22;10835;50.148;19.760;2022-10-04T12:07:22;25.40;46.00
21355;DHT22;10835;50.148;19.760;2022-10-04T12:09:58;25.30;45.90
21355;DHT22;10835;50.148;19.760;2022-10-04T12:12:53;24.60;46.10
21355;DHT22;10835;50.148;19.760;2022-10-04T12:15:42;24.80;46.20
21355;DHT22;10835;50.148;19.760;2022-10-04T12:18:51;24.60;46.40
21355;DHT22;10835;50.148;19.760;2022-10-04T12:21:46;24.60;46.90
21355;DHT22;10835;50.148;19.760;2022-10-04T12:24:26;24.40;47.40
21355;DHT22;10835;50.148;19.760;2022-10-04T12:27:54;24.60;47.30
21355;DHT22;10835;50.148;19.760;2022-10-04T12:30:37;24.50;45.80
21355;DHT22;10835;50.148;19.760;2022-10-04T12:33:12;24.50;46.60
21355;DHT22;10835;50.148;19.760;2022-10-04T12:35:52;25.00;46.90
21355;DHT22;10835;50.148;19.760;2022-10-04T12:41:20;25.10;46.00
21355;DHT22;10835;50.148;19.760;2022-10-04T12:44:00;25.50;46.40
21355;DHT22;10835;50.148;19.760;2022-10-04T12:46:40;25.50;45.30
21355;DHT22;10835;50.148;19.760;2022-10-04T12:49:20;25.80;43.70
21355;DHT22;10835;50.148;19.760;2022-10-04T12:51:56;25.20;44.40
21355;DHT22;10835;50.148;19.760;2022-10-04T12:54:38;25.10;44.40
21355;DHT22;10835;50.148;19.760;2022-10-04T12:57:43;25.00;44.80
21355;DHT22;10835;50.148;19.760;2022-10-04T13:00:17;24.90;45.20
21355;DHT22;10835;50.148;19.760;2022-10-04T13:06:08;24.70;45.90
21355;DHT22;10835;50.148;19.760;2022-10-04T13:08:48;25.00;45.10
21355;DHT22;10835;50.148;19.760;2022-10-04T13:11:30;24.80;44.40
21355;DHT22;10835;50.148;19.760;2022-10-04T13:14:34;24.70;44.60
21355;DHT22;10835;50.148;19.760;2022-10-04T13:17:16;25.50;44.00
21355;DHT22;10835;50.148;19.760;2022-10-04T13:20:29;25.70;43.90
21355;DHT22;10835;50.148;19.760;2022-10-04T13:23:04;25.60;43.80
21355;DHT22;10835;50.148;19.760;2022-10-04T13:25:50;26.00;43.10
21355;DHT22;10835;50.148;19.760;2022-10-04T13:28:33;26.00;44.00
21355;DHT22;10835;50.148;19.760;2022-10-04T13:31:15;25.90;43.80
21355;DHT22;10835;50.148;19.760;2022-10-04T13:33:56;25.60;44.60
21355;DHT22;10835;50.148;19.760;2022-10-04T13:36:40;25.60;44.50
21355;DHT22;10835;50.148;19.760;2022-10-04T13:39:20;25.30;45.20
21355;DHT22;10835;50.148;19.760;2022-10-04T13:42:19;24.90;45.20
21355;DHT22;10835;50.148;19.760;2022-10-04T13:45:13;24.50;45.60
21355;DHT22;10835;50.148;19.760;2022-10-04T13:47:55;24.90;45.90
21355;DHT22;10835;50.148;19.760;2022-10-04T13:50:41;25.30;46.20
21355;DHT22;10835;50.148;19.760;2022-10-04T13:53:21;24.90;45.00
21355;DHT22;10835;50.148;19.760;2022-10-04T13:56:18;25.30;44.30
21355;DHT22;10835;50.148;19.760;2022-10-04T13:59:11;24.90;43.90
21355;DHT22;10835;50.148;19.760;2022-10-04T14:02:21;25.10;44.50
21355;DHT22;10835;50.148;19.760;2022-10-04T14:05:24;24.70;44.80
21355;DHT22;10835;50.148;19.760;2022-10-04T14:14:31;24.30;45.70
21355;DHT22;10835;50.148;19.760;2022-10-04T14:17:31;24.00;46.50
21355;DHT22;10835;50.148;19.760;2022-10-04T14:20:36;24.10;45.20
21355;DHT22;10835;50.148;19.760;2022-10-04T14:23:30;24.30;45.70
21355;DHT22;10835;50.148;19.760;2022-10-04T14:26:22;24.60;45.20
21355;DHT22;10835;50.148;19.760;2022-10-04T14:29:14;24.50;44.60
21355;DHT22;10835;50.148;19.760;2022-10-04T14:34:58;24.10;45.30
21355;DHT22;10835;50.148;19.760;2022-10-04T14:38:06;24.40;45.30
21355;DHT22;10835;50.148;19.760;2022-10-04T14:40:50;24.90;44.90
21355;DHT22;10835;50.148;19.760;2022-10-04T14:46:33;25.90;43.90
21355;DHT22;10835;50.148;19.760;2022-10-04T14:49:13;26.00;44.60
21355;DHT22;10835;50.148;19.760;2022-10-04T14:52:09;26.30;43.00
21355;DHT22;10835;50.148;19.760;2022-10-04T14:54:49;26.00;43.30
21355;DHT22;10835;50.148;19.760;2022-10-04T14:57:40;26.80;43.10
21355;DHT22;10835;50.148;19.760;2022-10-04T15:00:16;26.20;42.40
21355;DHT22;10835;50.148;19.760;2022-10-04T15:03:10;26.30;43.30
21355;DHT22;10835;50.148;19.760;2022-10-04T15:06:02;26.40;42.70
21355;DHT22;10835;50.148;19.760;2022-10-04T15:11:41;26.00;43.30
21355;DHT22;10835;50.148;19.760;2022-10-04T15:14:38;26.10;42.90
21355;DHT22;10835;50.148;19.760;2022-10-04T15:17:10;26.00;43.80
21355;DHT22;10835;50.148;19.760;2022-10-04T15:20:04;26.20;43.70
21355;DHT22;10835;50.148;19.760;2022-10-04T15:22:40;26.30;43.90
21355;DHT22;10835;50.148;19.760;2022-10-04T15:25:37;26.00;43.20
21355;DHT22;10835;50.148;19.760;2022-10-04T15:28:15;26.00;43.60
21355;DHT22;10835;50.148;19.760;2022-10-04T15:30:59;26.60;44.00
21355;DHT22;10835;50.148;19.760;2022-10-04T15:33:34;27.00;43.80
21355;DHT22;10835;50.148;19.760;2022-10-04T15:42:11;27.30;43.40
21355;DHT22;10835;50.148;19.760;2022-10-04T15:44:56;26.60;43.40
21355;DHT22;10835;50.148;19.760;2022-10-04T15:47:34;26.20;44.20
21355;DHT22;10835;50.148;19.760;2022-10-04T15:50:19;26.00;45.30
21355;DHT22;10835;50.148;19.760;2022-10-04T15:53:05;25.50;45.60
21355;DHT22;10835;50.148;19.760;2022-10-04T15:56:00;25.30;46.10
21355;DHT22;10835;50.148;19.760;2022-10-04T15:58:43;25.10;46.50
21355;DHT22;10835;50.148;19.760;2022-10-04T16:01:32;24.80;47.10
21355;DHT22;10835;50.148;19.760;2022-10-04T16:04:28;24.70;47.40
21355;DHT22;10835;50.148;19.760;2022-10-04T16:07:10;24.80;47.40
21355;DHT22;10835;50.148;19.760;2022-10-04T16:09:44;24.90;47.20
21355;DHT22;10835;50.148;19.760;2022-10-04T16:12:19;24.90;47.00
21355;DHT22;10835;50.148;19.760;2022-10-04T16:15:14;25.00;47.10
21355;DHT22;10835;50.148;19.760;2022-10-04T16:18:01;25.10;46.80
21355;DHT22;10835;50.148;19.760;2022-10-04T16:21:01;25.20;46.40
21355;DHT22;10835;50.148;19.760;2022-10-04T16:23:33;25.30;46.30
21355;DHT22;10835;50.148;19.760;2022-10-04T16:26:04;25.30;46.00
21355;DHT22;10835;50.148;19.760;2022-10-04T16:29:05;25.50;46.00
21355;DHT22;10835;50.148;19.760;2022-10-04T16:31:42;25.50;45.50
21355;DHT22;10835;50.148;19.760;2022-10-04T16:34:27;25.60;45.10
21355;DHT22;10835;50.148;19.760;2022-10-04T16:37:02;25.50;45.10
21355;DHT22;10835;50.148;19.760;2022-10-04T16:39:49;25.60;45.10
21355;DHT22;10835;50.148;19.760;2022-10-04T16:42:46;25.70;44.90
21355;DHT22;10835;50.148;19.760;2022-10-04T16:45:47;25.60;44.70
21355;DHT22;10835;50.148;19.760;2022-10-04T16:48:36;25.50;44.50
21355;DHT22;10835;50.148;19.760;2022-10-04T16:51:45;25.60;44.90
21355;DHT22;10835;50.148;19.760;2022-10-04T16:57:28;25.40;44.70
21355;DHT22;10835;50.148;19.760;2022-10-04T16:59:57;25.30;44.80
21355;DHT22;10835;50.148;19.760;2022-10-04T17:02:48;25.30;44.80
21355;DHT22;10835;50.148;19.760;2022-10-04T17:05:45;25.20;44.90
21355;DHT22;10835;50.148;19.760;2022-10-04T17:08:38;25.20;44.80
21355;DHT22;10835;50.148;19.760;2022-10-04T17:11:28;25.20;44.90
21355;DHT22;10835;50.148;19.760;2022-10-04T17:14:17;25.20;45.10
21355;DHT22;10835;50.148;19.760;2022-10-04T17:16:50;25.00;44.90
21355;DHT22;10835;50.148;19.760;2022-10-04T17:19:29;24.90;44.90
21355;DHT22;10835;50.148;19.760;2022-10-04T17:22:10;24.90;45.00
21355;DHT22;10835;50.148;19.760;2022-10-04T17:24:49;24.50;45.20
21355;DHT22;10835;50.148;19.760;2022-10-04T17:27:42;24.20;46.00
21355;DHT22;10835;50.148;19.760;2022-10-04T17:30:17;24.40;47.10
21355;DHT22;10835;50.148;19.760;2022-10-04T17:33:00;24.60;46.20
21355;DHT22;10835;50.148;19.760;2022-10-04T17:36:01;24.20;46.50
21355;DHT22;10835;50.148;19.760;2022-10-04T17:38:42;24.30;46.80
21355;DHT22;10835;50.148;19.760;2022-10-04T17:41:16;23.80;47.00
21355;DHT22;10835;50.148;19.760;2022-10-04T17:44:12;24.10;47.50
21355;DHT22;10835;50.148;19.760;2022-10-04T17:46:50;24.00;47.00
21355;DHT22;10835;50.148;19.760;2022-10-04T17:49:29;23.50;47.50
21355;DHT22;10835;50.148;19.760;2022-10-04T17:52:19;23.10;48.10
21355;DHT22;10835;50.148;19.760;2022-10-04T17:55:13;22.30;48.70
21355;DHT22;10835;50.148;19.760;2022-10-04T17:57:54;21.60;50.60
21355;DHT22;10835;50.148;19.760;2022-10-04T18:00:24;21.70;51.00
21355;DHT22;10835;50.148;19.760;2022-10-04T18:03:08;22.60;50.10
21355;DHT22;10835;50.148;19.760;2022-10-04T18:05:48;23.10;49.20
21355;DHT22;10835;50.148;19.760;2022-10-04T18:08:37;23.30;48.10